Time;durP1;ratioP1;P1;durP2;ratioP2;P2;SDS_P1;SDS_P2;PMS_P1;PMS_P2;Temp;Humidity;BMP_temperature;BMP_pressure;BME280_temperature;BME280_humidity;BME280_pressure;Samples;Min_cycle;Max_cycle;Signal;HPM_P1;HPM_P2
2023/03/24 00:00:48;;;;;;;7.60;5.10;;;;;;;10.62;74.10;99721.61;102572;278;105001;-58
2023/03/24 00:03:29;;;;;;;7.20;4.50;;;;;;;10.63;74.28;99724.50;102515;278;114735;-57
2023/03/24 00:06:12;;;;;;;8.20;4.50;;;;;;;10.68;74.26;99728.59;102566;278;94112;-59
2023/03/24 00:08:53;;;;;;;7.00;4.70;;;;;;;10.72;74.29;99725.85;102526;278;97584;-59
2023/03/24 00:11:33;;;;;;;7.50;4.70;;;;;;;10.73;74.17;99728.63;102528;278;121028;-57
2023/03/24 00:14:10;;;;;;;8.20;4.80;;;;;;;10.70;74.20;99730.27;102535;278;104939;-51
2023/03/24 00:16:51;;;;;;;8.10;5.10;;;;;;;10.66;74.19;99734.56;102388;280;113007;-53
2023/03/24 00:19:37;;;;;;;8.50;5.00;;;;;;;10.67;74.35;99732.91;102548;278;94982;-59
2023/03/24 00:22:14;;;;;;;8.20;5.60;;;;;;;10.68;74.33;99741.10;102504;278;96890;-58
2023/03/24 00:24:55;;;;;;;9.50;5.80;;;;;;;10.72;74.58;99741.98;102506;278;119619;-55
2023/03/24 00:27:35;;;;;;;7.60;5.40;;;;;;;10.74;74.60;99741.77;102549;278;105557;-54
2023/03/24 00:30:14;;;;;;;9.70;6.20;;;;;;;10.70;74.56;99742.88;102536;267;113447;-59
2023/03/24 00:32:57;;;;;;;8.70;6.10;;;;;;;10.65;74.62;99741.05;102532;278;93266;-59
2023/03/24 00:35:34;;;;;;;10.40;6.80;;;;;;;10.58;74.65;99735.89;102540;278;97563;-56
2023/03/24 00:38:14;;;;;;;10.00;6.40;;;;;;;10.51;74.56;99737.59;102516;278;119966;-58
2023/03/24 00:40:55;;;;;;;13.10;6.50;;;;;;;10.35;74.49;99738.84;102513;278;105262;-54
2023/03/24 00:43:33;;;;;;;13.50;6.80;;;;;;;10.23;74.40;99733.41;102513;278;113050;-54
2023/03/24 00:46:27;;;;;;;8.40;5.90;;;;;;;10.14;74.55;99729.05;102545;278;96244;-57
2023/03/24 00:49:04;;;;;;;9.90;5.80;;;;;;;10.05;74.56;99729.36;102540;267;98391;-54
2023/03/24 00:51:40;;;;;;;10.90;6.50;;;;;;;9.94;74.52;99727.20;102520;278;119721;-54
2023/03/24 00:54:20;;;;;;;9.20;6.30;;;;;;;9.90;74.66;99724.53;102538;278;104952;-53
2023/03/24 00:57:01;;;;;;;9.00;6.50;;;;;;;9.80;74.71;99725.94;102513;278;113821;-54
2023/03/24 00:59:41;;;;;;;7.50;5.80;;;;;;;9.70;74.96;99727.55;102539;278;94764;-56
2023/03/24 01:02:30;;;;;;;7.60;5.90;;;;;;;9.61;74.97;99723.27;102490;278;97273;-57
2023/03/24 01:05:08;;;;;;;8.20;5.60;;;;;;;9.51;75.04;99723.59;102522;278;118678;-57
2023/03/24 01:07:45;;;;;;;8.30;5.30;;;;;;;9.37;75.31;99724.34;102523;278;105268;-58
2023/03/24 01:10:29;;;;;;;9.00;5.40;;;;;;;9.28;75.40;99723.45;102542;278;114885;-57
2023/03/24 01:13:04;;;;;;;9.00;5.10;;;;;;;9.23;75.66;99725.78;102552;278;96744;-58
2023/03/24 01:15:43;;;;;;;9.60;6.00;;;;;;;9.15;75.77;99725.15;102564;278;97279;-54
2023/03/24 01:18:22;;;;;;;9.10;5.70;;;;;;;9.11;75.87;99720.48;102522;278;120519;-53
2023/03/24 01:21:05;;;;;;;9.10;6.40;;;;;;;9.08;75.98;99723.98;102553;278;105842;-54
2023/03/24 01:23:48;;;;;;;8.00;6.30;;;;;;;9.03;76.19;99721.91;102487;278;114639;-54
2023/03/24 01:26:23;;;;;;;7.60;5.40;;;;;;;8.97;76.24;99725.21;102504;278;97007;-59
2023/03/24 01:28:58;;;;;;;8.80;5.40;;;;;;;8.87;76.32;99719.60;102531;278;97961;-58
2023/03/24 01:31:34;;;;;;;10.00;6.00;;;;;;;8.80;76.32;99722.69;102508;278;120942;-58
2023/03/24 01:34:08;;;;;;;7.60;5.30;;;;;;;8.75;76.43;99721.94;102542;278;104145;-54
2023/03/24 01:36:43;;;;;;;;;;;;;;;8.73;76.60;99718.35;102524;278;114627;-54
2023/03/24 01:39:19;;;;;;;8.30;5.50;;;;;;;8.67;76.77;99725.42;102562;278;94332;-58
2023/03/24 01:41:57;;;;;;;8.80;5.90;;;;;;;8.66;76.66;99727.31;102563;278;96069;-57
2023/03/24 01:44:35;;;;;;;10.40;7.30;;;;;;;8.64;76.83;99728.92;102514;278;120834;-55
2023/03/24 01:47:11;;;;;;;11.40;7.20;;;;;;;8.62;77.01;99719.29;102539;278;106421;-53
2023/03/24 01:49:57;;;;;;;11.00;7.50;;;;;;;8.59;77.00;99712.42;102547;278;114297;-54
2023/03/24 01:52:38;;;;;;;11.50;7.50;;;;;;;8.54;77.03;99714.56;102485;278;97833;-53
2023/03/24 01:55:18;;;;;;;9.40;6.70;;;;;;;8.47;76.96;99707.20;102579;278;98019;-54
2023/03/24 01:57:56;;;;;;;8.10;6.70;;;;;;;8.41;77.08;99707.91;102535;278;123371;-53
2023/03/24 02:00:32;;;;;;;8.70;7.00;;;;;;;8.36;77.14;99705.20;102571;278;105953;-55
2023/03/24 02:03:13;;;;;;;9.70;6.70;;;;;;;8.27;77.15;99700.55;102385;268;113555;-54
2023/03/24 02:05:57;;;;;;;10.40;7.60;;;;;;;8.15;77.09;99704.75;102547;278;96397;-58
2023/03/24 02:08:38;;;;;;;10.60;7.50;;;;;;;8.04;77.24;99702.73;102535;278;97813;-58
2023/03/24 02:11:19;;;;;;;9.80;6.80;;;;;;;7.99;77.27;99703.70;102537;278;121125;-57
2023/03/24 02:13:56;;;;;;;11.30;7.70;;;;;;;7.94;77.39;99701.95;102456;278;105954;-57
2023/03/24 02:17:11;;;;;;;9.70;6.60;;;;;;;7.87;77.54;99699.36;102487;278;113534;-57
2023/03/24 02:20:20;;;;;;;10.50;6.70;;;;;;;7.77;77.82;99695.63;102387;278;95648;-58
2023/03/24 02:23:57;;;;;;;8.60;6.10;;;;;;;7.72;77.88;99697.51;102388;278;98252;-57
2023/03/24 02:27:07;;;;;;;13.50;5.00;;;;;;;7.65;78.01;99696.44;102512;278;120362;-59
2023/03/24 02:30:35;;;;;;;17.60;6.30;;;;;;;7.64;78.16;99697.27;102511;278;105661;-59
2023/03/24 02:33:49;;;;;;;8.70;5.20;;;;;;;7.55;78.56;99693.32;102490;278;113430;-59
2023/03/24 02:37:03;;;;;;;9.20;4.70;;;;;;;7.46;78.65;99697.08;102395;278;96778;-53
2023/03/24 02:39:56;;;;;;;8.20;5.10;;;;;;;7.37;78.88;99700.94;102508;278;97679;-54
2023/03/24 02:42:48;;;;;;;8.20;5.00;;;;;;;7.31;78.92;99700.48;102522;278;118012;-53
2023/03/24 02:45:35;;;;;;;7.30;4.90;;;;;;;7.27;79.10;99699.92;102413;280;105463;-53
2023/03/24 02:48:27;;;;;;;7.60;5.00;;;;;;;7.28;79.14;99697.50;102514;278;114749;-54
2023/03/24 02:51:13;;;;;;;7.20;5.10;;;;;;;7.26;79.31;99696.60;102475;278;96669;-56
2023/03/24 02:54:09;;;;;;;9.20;5.40;;;;;;;7.21;79.39;99692.91;102498;278;95232;-59
2023/03/24 02:56:56;;;;;;;8.20;5.00;;;;;;;7.20;79.44;99697.34;102504;278;119394;-54
2023/03/24 02:59:43;;;;;;;7.60;5.30;;;;;;;7.17;79.48;99694.87;102532;278;105393;-58
2023/03/24 03:02:25;;;;;;;7.20;5.30;;;;;;;7.08;79.56;99695.42;102485;270;114318;-65
2023/03/24 03:05:07;;;;;;;9.00;5.60;;;;;;;7.00;79.65;99695.61;102511;278;96745;-53
2023/03/24 03:07:55;;;;;;;6.50;4.80;;;;;;;6.93;79.64;99698.27;102492;278;97553;-53
2023/03/24 03:10:38;;;;;;;9.90;5.90;;;;;;;6.85;79.71;99702.64;102510;278;120248;-53
2023/03/24 03:13:25;;;;;;;8.30;4.40;;;;;;;6.81;79.75;99705.70;102488;278;105945;-54
2023/03/24 03:16:07;;;;;;;7.10;4.90;;;;;;;6.71;79.83;99706.88;102530;278;114518;-58
2023/03/24 03:18:53;;;;;;;10.50;5.40;;;;;;;6.70;80.05;99708.43;102527;278;96328;-58
2023/03/24 03:21:37;;;;;;;10.60;5.40;;;;;;;6.67;80.28;99709.39;102419;280;97280;-54
2023/03/24 03:24:25;;;;;;;8.00;5.00;;;;;;;6.69;80.36;99717.33;102548;278;120452;-59
2023/03/24 03:27:13;;;;;;;7.90;5.20;;;;;;;6.67;80.40;99711.27;102521;278;105341;-59
2023/03/24 03:29:54;;;;;;;9.80;5.20;;;;;;;6.67;80.42;99714.27;102536;278;113323;-58
2023/03/24 03:32:34;;;;;;;9.20;6.00;;;;;;;6.70;80.51;99718.28;102556;278;95396;-59
2023/03/24 03:35:18;;;;;;;7.30;4.80;;;;;;;6.68;80.54;99718.80;102555;278;97500;-57
2023/03/24 03:38:09;;;;;;;8.50;5.40;;;;;;;6.70;80.73;99717.59;102494;278;118957;-58
2023/03/24 03:40:58;;;;;;;7.90;5.00;;;;;;;6.68;80.66;99714.39;102404;278;104763;-53
2023/03/24 03:43:35;;;;;;;9.50;5.40;;;;;;;6.71;80.83;99709.76;102500;278;113420;-54
2023/03/24 03:46:10;;;;;;;7.50;5.00;;;;;;;6.71;80.83;99705.10;102524;278;95045;-58
2023/03/24 03:48:45;;;;;;;5.90;4.90;;;;;;;6.71;80.99;99707.41;102501;278;97611;-58
2023/03/24 03:51:23;;;;;;;7.80;5.30;;;;;;;6.75;81.07;99704.71;102558;278;119749;-52
2023/03/24 03:54:06;;;;;;;8.00;5.40;;;;;;;6.78;81.25;99704.01;102530;278;106160;-55
2023/03/24 03:56:45;;;;;;;7.80;5.70;;;;;;;6.86;81.42;99700.41;102501;278;113732;-57
2023/03/24 03:59:33;;;;;;;7.80;5.20;;;;;;;6.90;81.35;99695.91;102523;278;97022;-59
2023/03/24 04:02:25;;;;;;;9.00;6.00;;;;;;;6.91;81.63;99700.51;102496;278;97936;-58
2023/03/24 04:05:28;;;;;;;7.00;4.80;;;;;;;6.93;81.58;99707.98;102556;278;121995;-54
2023/03/24 04:08:28;;;;;;;7.00;4.90;;;;;;;6.94;81.58;99705.88;102538;278;103262;-54
2023/03/24 04:11:26;;;;;;;8.50;4.60;;;;;;;6.94;81.58;99701.45;102561;275;114888;-59
2023/03/24 04:14:21;;;;;;;7.30;5.60;;;;;;;6.95;81.72;99703.80;102542;278;94375;-57
2023/03/24 04:17:09;;;;;;;8.50;5.40;;;;;;;6.94;81.74;99697.46;102503;278;97271;-59
2023/03/24 04:20:04;;;;;;;7.40;5.20;;;;;;;7.01;81.93;99700.17;102537;278;119243;-54
2023/03/24 04:22:59;;;;;;;8.00;5.40;;;;;;;7.12;82.13;99695.22;102469;278;105510;-53
2023/03/24 04:25:55;;;;;;;9.40;5.20;;;;;;;7.20;82.19;99689.46;102551;278;114250;-58
2023/03/24 04:28:38;;;;;;;8.30;5.40;;;;;;;7.28;82.33;99687.48;102465;278;96364;-57
2023/03/24 04:31:28;;;;;;;10.30;5.40;;;;;;;7.34;82.48;99682.20;102560;278;96837;-54
2023/03/24 04:34:16;;;;;;;9.80;5.80;;;;;;;7.44;82.56;99685.48;102537;267;120430;-57
2023/03/24 04:37:03;;;;;;;6.90;5.30;;;;;;;7.52;82.78;99680.84;102489;278;105938;-57
2023/03/24 04:39:42;;;;;;;7.00;5.00;;;;;;;7.55;82.53;99668.11;102523;278;114599;-54
2023/03/24 04:42:22;;;;;;;7.90;5.30;;;;;;;7.55;82.49;99667.20;102510;278;96574;-54
2023/03/24 04:44:57;;;;;;;8.00;5.50;;;;;;;7.62;82.47;99663.48;102527;278;96814;-54
2023/03/24 04:47:37;;;;;;;7.30;5.00;;;;;;;7.64;82.40;99661.11;102497;278;119702;-54
2023/03/24 04:50:29;;;;;;;8.20;5.20;;;;;;;7.67;82.37;99658.78;102537;278;104290;-53
2023/03/24 04:53:08;;;;;;;7.40;5.20;;;;;;;7.70;82.25;99658.33;102492;278;115628;-53
2023/03/24 04:56:07;;;;;;;6.20;4.80;;;;;;;7.71;82.31;99654.08;102550;278;95026;-54
2023/03/24 04:58:48;;;;;;;8.30;5.40;;;;;;;7.74;82.25;99654.67;102517;278;98882;-53
2023/03/24 05:01:29;;;;;;;8.60;5.50;;;;;;;7.80;82.19;99656.20;102528;278;119717;-59
2023/03/24 05:04:06;;;;;;;8.70;5.50;;;;;;;7.84;82.15;99657.21;102549;278;103379;-57
2023/03/24 05:06:42;;;;;;;7.00;4.90;;;;;;;7.86;82.08;99657.66;102478;278;114147;-57
2023/03/24 05:09:26;;;;;;;8.80;5.30;;;;;;;7.87;82.07;99661.79;102408;280;96520;-58
2023/03/24 05:12:05;;;;;;;7.10;4.80;;;;;;;7.96;82.12;99656.34;102388;280;97887;-57
2023/03/24 05:14:48;;;;;;;9.90;4.80;;;;;;;8.12;82.11;99659.40;102520;278;120263;-54
2023/03/24 05:17:28;;;;;;;7.90;5.30;;;;;;;8.41;82.23;99655.41;102572;278;105622;-54
2023/03/24 05:20:09;;;;;;;8.40;5.80;;;;;;;8.72;82.27;99654.25;102526;278;114731;-54
2023/03/24 05:22:48;;;;;;;8.90;5.50;;;;;;;9.03;82.09;99649.79;102518;278;93478;-51
2023/03/24 05:25:23;;;;;;;8.20;5.80;;;;;;;9.24;81.91;99645.06;102539;278;98183;-53
2023/03/24 05:27:59;;;;;;;9.30;6.00;;;;;;;9.36;81.70;99643.02;102553;278;121324;-54
2023/03/24 05:30:40;;;;;;;10.20;6.00;;;;;;;9.41;81.46;99641.17;102566;278;105171;-59
2023/03/24 05:33:18;;;;;;;8.80;6.10;;;;;;;9.48;81.68;99639.13;102493;278;114956;-56
2023/03/24 05:36:00;;;;;;;11.70;7.10;;;;;;;9.68;81.66;99632.12;102527;278;95943;-58
2023/03/24 05:38:44;;;;;;;12.30;7.10;;;;;;;9.89;81.57;99627.08;102576;278;97794;-59
2023/03/24 05:41:24;;;;;;;12.20;8.10;;;;;;;10.07;81.40;99622.73;102488;278;121508;-58
2023/03/24 05:44:08;;;;;;;11.20;7.70;;;;;;;10.22;81.32;99614.89;102526;278;105968;-55
2023/03/24 05:46:47;;;;;;;15.20;9.30;;;;;;;10.40;81.30;99614.02;102556;278;115138;-55
2023/03/24 05:49:24;;;;;;;11.60;8.40;;;;;;;10.59;81.16;99614.98;102527;278;92448;-54
2023/03/24 05:52:00;;;;;;;;;;;;;;;10.71;80.96;99624.65;102564;278;97263;-54
2023/03/24 05:54:35;;;;;;;14.50;9.80;;;;;;;10.79;80.72;99631.13;102566;278;120822;-54
2023/03/24 05:57:15;;;;;;;14.00;8.00;;;;;;;10.80;80.59;99625.85;102539;278;104727;-53
2023/03/24 05:59:51;;;;;;;15.30;9.20;;;;;;;10.85;80.45;99622.02;102506;278;115240;-58
2023/03/24 06:02:25;;;;;;;14.50;8.20;;;;;;;10.90;80.41;99619.06;102495;278;96555;-58
2023/03/24 06:05:06;;;;;;;12.80;8.70;;;;;;;11.03;80.13;99617.46;102558;278;96912;-58
2023/03/24 06:07:47;;;;;;;11.30;8.90;;;;;;;11.11;80.01;99616.81;102496;278;120980;-52
2023/03/24 06:10:28;;;;;;;15.90;9.60;;;;;;;11.18;79.85;99613.75;102566;278;105761;-57
2023/03/24 06:13:11;;;;;;;11.90;8.20;;;;;;;11.27;79.81;99605.66;102486;278;113932;-57
2023/03/24 06:15:47;;;;;;;13.30;8.50;;;;;;;11.31;79.53;99610.86;102511;267;94138;-58
2023/03/24 06:18:25;;;;;;;14.60;8.60;;;;;;;11.45;79.25;99607.10;102562;278;97615;-59
2023/03/24 06:21:07;;;;;;;13.70;8.50;;;;;;;11.56;79.11;99605.34;102491;278;120708;-54
2023/03/24 06:23:50;;;;;;;12.40;8.50;;;;;;;11.67;78.84;99607.89;102505;278;104261;-52
2023/03/24 06:26:35;;;;;;;12.30;8.70;;;;;;;11.74;78.85;99608.04;102521;278;114482;-54
2023/03/24 06:29:17;;;;;;;11.70;8.80;;;;;;;11.80;78.53;99606.34;102539;278;94388;-55
2023/03/24 06:31:53;;;;;;;10.90;8.70;;;;;;;11.83;78.57;99604.86;102507;278;96590;-53
2023/03/24 06:34:28;;;;;;;14.20;9.70;;;;;;;11.91;78.34;99606.95;102544;278;121000;-59
2023/03/24 06:37:09;;;;;;;15.50;9.20;;;;;;;12.03;78.36;99610.78;102566;278;105116;-59
2023/03/24 06:39:48;;;;;;;14.80;8.80;;;;;;;12.11;78.15;99610.66;102496;278;114215;-55
2023/03/24 06:42:30;;;;;;;15.00;10.20;;;;;;;12.18;77.99;99611.52;102527;278;95231;-55
2023/03/24 06:45:09;;;;;;;12.40;9.50;;;;;;;12.18;77.59;99611.02;102513;278;97639;-55
2023/03/24 06:47:44;;;;;;;14.70;9.40;;;;;;;12.23;77.41;99608.23;102530;278;120734;-56
2023/03/24 06:50:31;;;;;;;15.70;9.60;;;;;;;12.23;77.20;99605.36;102584;278;106338;-56
2023/03/24 06:53:10;;;;;;;13.90;9.70;;;;;;;12.22;77.29;99603.81;102477;278;113082;-56
2023/03/24 06:55:51;;;;;;;13.90;9.30;;;;;;;12.20;76.99;99605.33;102531;278;95323;-60
2023/03/24 06:58:31;;;;;;;14.80;8.80;;;;;;;12.26;76.98;99604.55;102494;278;99101;-58
2023/03/24 07:01:10;;;;;;;13.20;9.20;;;;;;;12.28;76.91;99604.57;102526;278;120144;-55
2023/03/24 07:03:49;;;;;;;13.20;9.10;;;;;;;12.31;76.86;99605.14;102538;278;106232;-55
2023/03/24 07:06:31;;;;;;;12.80;8.70;;;;;;;12.35;76.73;99608.81;102565;278;113020;-53
2023/03/24 07:09:10;;;;;;;13.00;8.70;;;;;;;12.37;76.68;99609.42;102379;280;95016;-60
2023/03/24 07:11:50;;;;;;;12.70;9.70;;;;;;;12.38;76.61;99614.66;102524;278;98497;-60
2023/03/24 07:14:29;;;;;;;13.40;8.50;;;;;;;12.44;76.59;99618.91;102507;278;121024;-53
2023/03/24 07:17:05;;;;;;;14.60;9.00;;;;;;;12.51;76.54;99618.64;102525;278;105984;-54
2023/03/24 07:19:47;;;;;;;14.60;8.60;;;;;;;12.56;76.47;99616.98;102554;278;114047;-55
2023/03/24 07:22:28;;;;;;;11.70;8.40;;;;;;;12.61;76.33;99617.52;102479;278;95605;-54
2023/03/24 07:25:08;;;;;;;13.60;8.60;;;;;;;12.70;76.28;99617.53;102591;278;96301;-58
2023/03/24 07:27:47;;;;;;;12.70;7.80;;;;;;;12.72;76.28;99618.42;102547;278;120306;-59
2023/03/24 07:30:23;;;;;;;12.40;7.90;;;;;;;12.80;76.25;99612.23;102545;278;105810;-60
2023/03/24 07:33:00;;;;;;;13.40;8.30;;;;;;;12.81;75.86;99619.05;102497;278;113529;-60
2023/03/24 07:35:37;;;;;;;11.80;7.30;;;;;;;12.86;75.98;99620.47;102095;278;555449;-59
2023/03/24 07:38:11;;;;;;;10.50;7.80;;;;;;;12.99;75.83;99616.57;102469;267;97769;-59
2023/03/24 07:40:51;;;;;;;11.20;7.60;;;;;;;13.09;75.80;99617.38;102478;278;120803;-55
2023/03/24 07:43:36;;;;;;;10.20;7.00;;;;;;;13.14;75.76;99611.16;102523;278;104678;-55
2023/03/24 07:46:18;;;;;;;10.00;7.20;;;;;;;13.21;75.72;99608.73;102530;278;114481;-60
2023/03/24 07:49:00;;;;;;;11.90;7.10;;;;;;;13.25;75.71;99609.77;102519;278;94794;-59
2023/03/24 07:51:44;;;;;;;10.30;7.60;;;;;;;13.29;75.69;99605.06;102525;278;98225;-53
2023/03/24 07:54:26;;;;;;;7.70;5.70;;;;;;;13.30;75.96;99597.96;102546;271;120630;-53
2023/03/24 07:57:03;;;;;;;11.80;6.70;;;;;;;13.29;76.01;99599.30;102520;278;105655;-56
2023/03/24 07:59:47;;;;;;;9.20;5.80;;;;;;;13.31;76.11;99593.11;102546;278;114857;-60
2023/03/24 08:02:36;;;;;;;10.00;6.60;;;;;;;13.33;76.21;99592.42;102510;278;96479;-59
2023/03/24 08:05:13;;;;;;;8.00;6.10;;;;;;;13.41;76.22;99585.59;102532;278;96230;-54
2023/03/24 08:07:54;;;;;;;10.00;6.80;;;;;;;13.47;76.44;99577.80;102542;278;119206;-54
2023/03/24 08:10:31;;;;;;;8.00;6.60;;;;;;;13.55;76.70;99577.65;102558;278;103913;-60
2023/03/24 08:13:13;;;;;;;7.60;5.50;;;;;;;13.64;76.99;99575.63;102515;278;113216;-59
2023/03/24 08:15:47;;;;;;;8.50;6.10;;;;;;;13.73;76.93;99573.37;102532;278;96684;-58
2023/03/24 08:18:30;;;;;;;8.60;6.10;;;;;;;13.78;76.86;99571.39;102401;278;98069;-59
2023/03/24 08:21:15;;;;;;;8.70;5.90;;;;;;;13.79;76.97;99566.61;102500;278;120121;-54
2023/03/24 08:23:53;;;;;;;7.50;5.90;;;;;;;13.84;77.18;99565.41;102528;278;105497;-54
2023/03/24 08:26:27;;;;;;;8.10;5.70;;;;;;;14.02;77.22;99562.05;102514;278;112976;-59
2023/03/24 08:29:03;;;;;;;8.70;6.10;;;;;;;14.25;77.05;99557.85;102581;278;94923;-55
2023/03/24 08:31:45;;;;;;;9.40;5.80;;;;;;;14.36;76.83;99553.87;102356;278;96749;-54
2023/03/24 08:34:25;;;;;;;7.70;6.10;;;;;;;14.44;76.84;99546.10;102544;278;119689;-59
2023/03/24 08:37:07;;;;;;;8.10;6.20;;;;;;;14.35;76.65;99537.31;102539;267;106390;-59
2023/03/24 08:39:45;;;;;;;8.10;6.20;;;;;;;14.25;76.73;99531.73;102544;278;114781;-54
2023/03/24 08:42:21;;;;;;;9.10;6.30;;;;;;;14.30;76.79;99526.21;102503;278;96323;-55
2023/03/24 08:45:00;;;;;;;9.60;6.80;;;;;;;14.26;76.60;99526.27;102515;278;98414;-59
2023/03/24 08:47:39;;;;;;;8.90;6.20;;;;;;;14.21;76.44;99520.59;102492;278;119964;-62
2023/03/24 08:50:24;;;;;;;11.70;7.30;;;;;;;14.11;76.33;99510.55;102545;278;106028;-56
2023/03/24 08:52:59;;;;;;;12.50;7.20;;;;;;;14.00;76.34;99505.39;102534;278;115284;-60
2023/03/24 08:55:44;;;;;;;8.60;6.40;;;;;;;13.83;76.31;99500.17;102523;278;94616;-59
2023/03/24 08:58:27;;;;;;;9.20;6.80;;;;;;;13.76;76.20;99497.12;102567;278;97610;-59
2023/03/24 09:01:10;;;;;;;7.20;5.90;;;;;;;13.73;76.49;99491.81;102547;278;121465;-60
2023/03/24 09:03:52;;;;;;;7.60;6.40;;;;;;;13.83;76.67;99488.83;102520;278;103988;-59
2023/03/24 09:06:30;;;;;;;10.10;6.60;;;;;;;14.12;76.80;99487.39;102527;278;115835;-54
2023/03/24 09:09:16;;;;;;;12.50;7.50;;;;;;;14.60;76.35;99483.25;102517;278;95847;-54
2023/03/24 09:11:57;;;;;;;11.60;7.00;;;;;;;15.04;76.05;99475.98;102494;278;98467;-54
2023/03/24 09:14:33;;;;;;;9.00;6.50;;;;;;;15.34;75.34;99467.83;102372;278;120717;-59
2023/03/24 09:17:13;;;;;;;9.50;7.40;;;;;;;15.69;74.53;99462.48;102495;278;105934;-59
2023/03/24 09:19:48;;;;;;;9.70;7.30;;;;;;;16.20;73.84;99457.23;102500;278;115066;-59
2023/03/24 09:22:21;;;;;;;;;;;;;;;16.91;73.67;99447.42;102554;267;93414;-59
2023/03/24 09:25:01;;;;;;;7.50;6.30;;;;;;;17.39;72.40;99440.91;102551;278;97601;-55
2023/03/24 09:27:42;;;;;;;9.80;6.40;;;;;;;18.09;70.80;99442.58;102544;278;120245;-55
2023/03/24 09:30:19;;;;;;;8.30;6.00;;;;;;;18.67;69.67;99428.44;102572;278;105782;-54
2023/03/24 09:33:03;;;;;;;6.50;5.30;;;;;;;19.30;68.55;99424.43;102488;278;115131;-54
2023/03/24 09:35:45;;;;;;;8.50;5.90;;;;;;;19.46;66.07;99421.77;102536;278;94509;-55
2023/03/24 09:38:53;;;;;;;7.00;5.50;;;;;;;19.27;66.71;99418.45;102544;278;97345;-55
2023/03/24 09:41:33;;;;;;;8.60;5.70;;;;;;;19.25;66.00;99423.38;102423;278;120607;-59
2023/03/24 09:44:22;;;;;;;7.00;5.60;;;;;;;19.00;64.76;99418.64;102519;278;106103;-58
2023/03/24 09:47:04;;;;;;;6.70;5.90;;;;;;;18.74;64.56;99419.28;102381;280;116409;-56
2023/03/24 09:49:46;;;;;;;7.10;5.80;;;;;;;18.67;64.90;99416.35;102556;279;95072;-61
2023/03/24 09:52:32;;;;;;;7.40;5.80;;;;;;;18.45;64.38;99410.36;102532;278;95395;-60
2023/03/24 09:55:15;;;;;;;9.10;5.80;;;;;;;18.28;65.01;99407.45;102502;278;121051;-54
2023/03/24 09:58:00;;;;;;;7.20;5.70;;;;;;;18.23;65.27;99408.02;102505;278;104038;-54
2023/03/24 10:04:17;;;;;;;7.40;5.50;;;;;;;17.91;64.93;99406.73;103777;277;94506;-60
2023/03/24 10:06:56;;;;;;;8.30;5.90;;;;;;;17.70;64.83;99402.30;104290;277;97312;-60
2023/03/24 10:09:31;;;;;;;8.20;5.70;;;;;;;17.60;65.25;99398.39;104766;277;119560;-54
2023/03/24 10:12:21;;;;;;;7.90;6.20;;;;;;;17.51;65.03;99400.58;104762;277;106241;-54
2023/03/24 10:15:10;;;;;;;7.80;6.20;;;;;;;17.36;65.54;99397.62;104722;277;114699;-60
2023/03/24 10:17:57;;;;;;;8.70;6.60;;;;;;;17.32;65.55;99391.69;104743;277;94881;-60
2023/03/24 10:20:39;;;;;;;7.90;5.80;;;;;;;17.17;65.81;99393.98;104813;277;98112;-60
2023/03/24 10:23:33;;;;;;;11.50;6.00;;;;;;;17.06;65.78;99396.59;104314;277;119907;-56
2023/03/24 10:26:22;;;;;;;7.80;5.80;;;;;;;17.06;65.91;99384.48;104321;277;105393;-55
2023/03/24 10:29:13;;;;;;;8.10;5.70;;;;;;;16.98;65.91;99378.38;104297;277;113316;-60
2023/03/24 10:31:50;;;;;;;9.20;6.30;;;;;;;16.95;66.07;99377.25;104760;277;93853;-60
2023/03/24 10:34:29;;;;;;;9.40;5.90;;;;;;;16.95;66.24;99376.48;104326;277;96907;-55
2023/03/24 10:37:05;;;;;;;9.10;6.20;;;;;;;16.96;66.38;99375.04;104298;277;119029;-55
2023/03/24 10:39:39;;;;;;;7.10;5.40;;;;;;;16.94;66.27;99377.36;104278;277;104907;-59
2023/03/24 10:42:15;;;;;;;;;;;;;;;16.97;66.33;99368.83;104765;278;114230;-59
2023/03/24 10:44:51;;;;;;;8.30;6.00;;;;;;;16.97;66.34;99361.13;104273;277;93939;-60
2023/03/24 10:47:28;;;;;;;6.80;6.00;;;;;;;17.15;66.38;99365.25;104765;277;98027;-60
2023/03/24 10:50:06;;;;;;;7.70;5.60;;;;;;;17.30;66.45;99369.11;104275;277;120498;-60
2023/03/24 10:52:47;;;;;;;7.00;5.70;;;;;;;17.40;66.31;99363.70;104299;277;106029;-60
2023/03/24 10:55:23;;;;;;;7.80;5.60;;;;;;;17.42;66.04;99364.10;104266;278;114565;-55
2023/03/24 10:58:00;;;;;;;6.70;5.60;;;;;;;17.55;66.34;99363.87;104757;277;94283;-55
2023/03/24 11:00:38;;;;;;;8.10;5.60;;;;;;;17.75;65.89;99368.35;104784;277;97301;-55
2023/03/24 11:03:16;;;;;;;7.10;5.50;;;;;;;17.86;65.49;99365.98;104300;277;120263;-56
2023/03/24 11:05:58;;;;;;;9.10;6.00;;;;;;;17.91;65.24;99364.98;104549;278;104626;-59
2023/03/24 11:08:36;;;;;;;10.50;5.70;;;;;;;17.87;64.71;99363.75;104531;277;113586;-60
2023/03/24 11:11:31;;;;;;;9.40;5.50;;;;;;;17.63;64.59;99368.80;104171;277;93522;-60
2023/03/24 11:14:04;;;;;;;;;;;;;;;17.51;64.83;99365.30;104633;274;97479;-55
2023/03/24 11:16:43;;;;;;;8.40;5.00;;;;;;;17.44;64.74;99362.91;104169;277;121526;-55
2023/03/24 11:19:25;;;;;;;6.00;4.50;;;;;;;17.39;64.92;99353.59;104187;277;104370;-60
2023/03/24 11:22:06;;;;;;;8.80;5.10;;;;;;;17.39;65.03;99349.98;104150;265;114392;-60
2023/03/24 11:24:42;;;;;;;7.60;5.60;;;;;;;17.33;65.09;99351.52;104174;277;95037;-60
2023/03/24 11:27:17;;;;;;;6.60;4.80;;;;;;;17.22;64.96;99345.99;103947;277;97153;-60
2023/03/24 11:29:55;;;;;;;7.70;5.40;;;;;;;17.12;64.86;99342.79;104549;277;119820;-59
2023/03/24 11:32:30;;;;;;;8.00;5.00;;;;;;;17.04;65.25;99338.98;104199;277;105911;-59
2023/03/24 11:35:16;;;;;;;7.30;5.30;;;;;;;16.99;65.24;99336.75;104144;266;114855;-60
2023/03/24 11:37:51;;;;;;;7.80;5.10;;;;;;;17.03;65.37;99332.16;104143;277;93911;-60
2023/03/24 11:40:29;;;;;;;8.10;5.50;;;;;;;17.05;65.48;99326.39;104558;277;97168;-55
2023/03/24 11:43:07;;;;;;;9.00;4.90;;;;;;;17.19;65.31;99317.64;104157;277;119902;-55
2023/03/24 11:45:44;;;;;;;10.30;5.50;;;;;;;17.37;65.32;99312.77;104170;277;105862;-55
2023/03/24 11:48:30;;;;;;;7.90;5.30;;;;;;;17.52;64.98;99311.27;104199;277;114793;-60
2023/03/24 11:51:05;;;;;;;7.90;5.00;;;;;;;17.48;64.84;99306.70;104162;278;95020;-60
2023/03/24 11:53:50;;;;;;;6.20;5.10;;;;;;;17.46;64.80;99303.74;104197;277;98248;-54
2023/03/24 11:56:30;;;;;;;7.50;4.80;;;;;;;17.45;64.52;99297.51;104149;277;121391;-54
2023/03/24 11:59:14;;;;;;;7.80;5.40;;;;;;;17.36;64.47;99296.23;104176;278;105547;-55
2023/03/24 12:01:58;;;;;;;7.50;4.80;;;;;;;17.37;64.51;99296.23;104186;277;115000;-55
2023/03/24 12:04:48;;;;;;;6.20;4.50;;;;;;;17.36;64.60;99293.94;104571;278;94030;-54
2023/03/24 12:08:21;;;;;;;6.60;4.80;;;;;;;17.38;64.38;99288.50;104161;277;97583;-54
2023/03/24 12:11:12;;;;;;;8.10;5.10;;;;;;;17.42;64.39;99284.27;103621;283;121531;-55
2023/03/24 12:13:49;;;;;;;6.70;4.50;;;;;;;17.50;64.27;99281.48;104553;277;105685;-60
2023/03/24 12:16:40;;;;;;;7.50;5.20;;;;;;;17.66;64.38;99271.37;104554;277;113823;-59
2023/03/24 12:19:51;;;;;;;7.00;4.40;;;;;;;17.96;64.28;99266.26;104537;277;95449;-55
2023/03/24 12:22:41;;;;;;;6.50;4.70;;;;;;;18.29;64.08;99263.59;104085;277;97050;-55
2023/03/24 12:25:42;;;;;;;5.70;4.50;;;;;;;18.48;63.14;99259.63;104546;278;119967;-60
2023/03/24 12:28:37;;;;;;;9.40;4.30;;;;;;;18.65;63.13;99250.00;104149;277;103374;-55
2023/03/24 12:31:55;;;;;;;8.10;4.50;;;;;;;18.80;63.00;99246.38;104546;277;113744;-54
2023/03/24 12:34:54;;;;;;;8.30;4.10;;;;;;;18.94;62.01;99247.05;104532;278;95026;-55
2023/03/24 12:37:39;;;;;;;6.00;4.30;;;;;;;18.98;61.57;99243.61;104181;278;98014;-55
2023/03/24 12:41:02;;;;;;;5.50;3.50;;;;;;;18.95;60.22;99233.92;104151;278;120165;-55
2023/03/24 12:43:49;;;;;;;4.30;3.70;;;;;;;18.97;60.46;99233.11;103710;282;105133;-60
2023/03/24 12:46:41;;;;;;;4.40;3.40;;;;;;;19.05;60.41;99229.73;104085;277;114963;-60